createdAt,value
2022-07-29T00:00:13.723Z,3.45
2022-07-29T00:05:26.613Z,3.40
2022-07-29T00:10:35.003Z,3.00
2022-07-29T00:15:44.016Z,3.60
2022-07-29T00:20:51.721Z,2.50
2022-07-29T00:26:00.636Z,3.58
2022-07-29T00:36:44.655Z,3.28
2022-07-29T00:41:50.889Z,2.97
2022-07-29T00:47:07.333Z,3.90
2022-07-29T00:57:52.997Z,3.15
2022-07-29T01:05:48.131Z,2.93
2022-07-29T01:11:01.857Z,3.50
2022-07-29T01:16:16.307Z,3.78
2022-07-29T01:21:57.839Z,3.00
2022-07-29T01:27:31.848Z,3.53
2022-07-29T01:32:42.613Z,3.17
2022-07-29T01:38:10.281Z,3.17
2022-07-29T01:43:43.954Z,3.75
2022-07-29T01:49:06.191Z,4.30
2022-07-29T01:54:47.421Z,3.60
2022-07-29T01:59:55.191Z,3.53
2022-07-29T02:05:17.387Z,4.35
2022-07-29T02:10:26.694Z,4.35
2022-07-29T02:15:40.139Z,4.43
2022-07-29T02:20:55.964Z,4.07
2022-07-29T02:26:18.830Z,4.15
2022-07-29T02:31:50.584Z,3.33
2022-07-29T02:36:58.667Z,4.05
2022-07-29T02:42:11.714Z,4.00
2022-07-29T02:47:45.058Z,4.68
2022-07-29T02:53:27.980Z,4.00
2022-07-29T03:07:27.998Z,5.10
2022-07-29T03:12:31.320Z,4.63
2022-07-29T03:18:06.887Z,5.50
2022-07-29T03:23:12.149Z,4.75
2022-07-29T03:28:14.172Z,5.43
2022-07-29T03:33:18.246Z,4.43
2022-07-29T03:38:21.667Z,5.25
2022-07-29T03:43:27.019Z,4.85
2022-07-29T03:48:33.034Z,4.78
2022-07-29T03:53:36.559Z,4.50
2022-07-29T03:58:39.984Z,4.82
2022-07-29T04:03:42.044Z,4.75
2022-07-29T04:08:44.174Z,4.82
2022-07-29T04:13:46.183Z,4.30
2022-07-29T04:18:48.385Z,5.63
2022-07-29T04:23:53.689Z,6.28
2022-07-29T04:28:56.038Z,4.55
2022-07-29T04:33:58.643Z,5.88
2022-07-29T04:39:02.037Z,5.88
2022-07-29T04:44:07.217Z,6.13
2022-07-29T04:49:09.713Z,6.07
2022-07-29T04:54:11.798Z,5.20
2022-07-29T04:59:13.803Z,5.90
2022-07-29T05:04:16.132Z,5.88
2022-07-29T05:09:18.537Z,5.95
2022-07-29T05:14:20.752Z,5.63
2022-07-29T05:19:22.918Z,5.82
2022-07-29T05:24:24.927Z,5.90
2022-07-29T05:29:43.122Z,5.60
2022-07-29T05:34:50.387Z,5.40
2022-07-29T05:39:56.595Z,5.70
2022-07-29T05:44:59.457Z,5.70
2022-07-29T05:50:01.570Z,5.32
2022-07-29T05:55:05.424Z,5.75
2022-07-29T06:00:08.465Z,5.00
2022-07-29T06:05:17.252Z,5.25
2022-07-29T06:10:20.171Z,4.90
2022-07-29T06:15:25.975Z,4.80
2022-07-29T06:20:32.274Z,4.75
2022-07-29T06:25:36.550Z,5.00
2022-07-29T06:30:39.219Z,4.32
2022-07-29T06:35:43.191Z,4.97
2022-07-29T06:41:10.715Z,3.95
2022-07-29T06:46:15.746Z,3.50
2022-07-29T06:51:24.157Z,4.35
2022-07-29T06:56:26.305Z,5.18
2022-07-29T07:01:28.403Z,5.57
2022-07-29T07:06:30.682Z,4.78
2022-07-29T07:11:33.029Z,4.40
2022-07-29T07:16:38.890Z,4.55
2022-07-29T07:21:41.518Z,4.47
2022-07-29T07:26:43.605Z,3.80
2022-07-29T07:31:49.419Z,4.45
2022-07-29T07:36:51.551Z,4.47
2022-07-29T07:41:53.840Z,3.70
2022-07-29T07:46:59.919Z,3.55
2022-07-29T07:52:17.900Z,4.85
2022-07-29T07:57:20.121Z,3.83
2022-07-29T08:02:25.600Z,3.72
2022-07-29T08:07:27.631Z,4.07
2022-07-29T08:12:29.747Z,3.03
2022-07-29T08:17:37.008Z,2.88
2022-07-29T08:22:39.044Z,3.08
2022-07-29T08:27:43.825Z,3.25
2022-07-29T08:32:54.827Z,3.03
2022-07-29T08:37:58.035Z,3.30
2022-07-29T08:43:08.770Z,3.20
2022-07-29T08:53:15.345Z,3.25
2022-07-29T08:58:22.900Z,3.47
2022-07-29T09:03:32.141Z,3.65
2022-07-29T09:08:34.594Z,3.55
2022-07-29T09:13:36.920Z,3.45
2022-07-29T09:18:45.364Z,3.72
2022-07-29T09:24:08.879Z,3.08
2022-07-29T09:29:18.117Z,3.58
2022-07-29T09:34:27.995Z,3.35
2022-07-29T09:39:41.201Z,3.27
2022-07-29T09:44:46.533Z,3.13
2022-07-29T09:50:07.332Z,2.90
2022-07-29T09:55:13.588Z,2.75
2022-07-29T10:00:21.584Z,4.10
2022-07-29T10:05:26.069Z,3.47
2022-07-29T10:10:34.875Z,3.40
2022-07-29T10:15:40.189Z,3.40
2022-07-29T10:20:42.728Z,3.55
2022-07-29T10:25:52.505Z,3.63
2022-07-29T10:31:05.327Z,3.07
2022-07-29T10:36:40.232Z,2.92
2022-07-29T10:54:01.302Z,2.78
2022-07-29T10:59:36.357Z,2.67
2022-07-29T11:04:44.527Z,3.05
2022-07-29T11:10:12.848Z,2.92
2022-07-29T11:15:22.410Z,2.78
2022-07-29T11:20:40.735Z,2.67
2022-07-29T11:25:50.616Z,2.88
2022-07-29T11:30:56.341Z,3.10
2022-07-29T11:36:16.872Z,2.83
2022-07-29T11:41:19.147Z,2.92
2022-07-29T11:46:54.743Z,3.20
2022-07-29T11:52:02.861Z,2.95
2022-07-29T11:57:08.548Z,3.97
2022-07-29T12:02:37.231Z,3.28
2022-07-29T12:07:35.599Z,2.80
2022-07-29T12:12:39.796Z,3.00
2022-07-29T12:17:42.324Z,3.40
2022-07-29T12:22:45.379Z,3.72
2022-07-29T12:27:48.594Z,3.30
2022-07-29T12:32:51.436Z,3.70
2022-07-29T12:38:00.236Z,3.30
2022-07-29T12:43:12.760Z,2.90
2022-07-29T12:48:15.870Z,3.60
2022-07-29T12:53:17.960Z,3.28
2022-07-29T12:58:31.182Z,3.25
2022-07-29T13:03:56.886Z,2.72
2022-07-29T13:09:07.692Z,2.85
2022-07-29T13:14:13.315Z,3.40
2022-07-29T13:19:15.343Z,3.03
2022-07-29T13:24:19.910Z,2.70
2022-07-29T13:29:31.748Z,2.72
2022-07-29T13:34:34.058Z,3.22
2022-07-29T13:39:36.236Z,2.53
2022-07-29T13:44:38.392Z,2.72
2022-07-29T13:49:40.555Z,2.65
2022-07-29T13:54:45.921Z,2.65
2022-07-29T13:59:53.451Z,2.50
2022-07-29T14:04:56.446Z,2.60
2022-07-29T14:09:58.743Z,3.05
2022-07-29T14:15:01.185Z,2.95
2022-07-29T14:20:04.007Z,2.75
2022-07-29T14:25:14.722Z,2.20
2022-07-29T14:30:17.503Z,2.63
2022-07-29T14:35:20.382Z,2.40
2022-07-29T14:40:22.564Z,2.60
2022-07-29T14:45:25.389Z,2.80
2022-07-29T14:50:31.207Z,2.25
2022-07-29T14:55:34.307Z,2.45
2022-07-29T15:00:37.992Z,2.67
2022-07-29T15:05:40.220Z,2.50
2022-07-29T15:10:42.390Z,2.47
2022-07-29T15:15:45.564Z,2.22
2022-07-29T15:20:47.818Z,2.15
2022-07-29T15:25:54.916Z,2.20
2022-07-29T15:30:57.225Z,2.50
2022-07-29T15:35:59.341Z,2.40
2022-07-29T15:41:01.684Z,2.60
2022-07-29T15:46:22.193Z,2.33
2022-07-29T15:51:24.356Z,2.20
2022-07-29T15:56:26.719Z,1.85
2022-07-29T16:01:28.813Z,2.40
2022-07-29T16:06:31.011Z,2.20
2022-07-29T16:11:33.654Z,1.88
2022-07-29T16:34:11.250Z,2.15
2022-07-29T16:57:15.452Z,2.28
2022-07-29T17:02:17.793Z,2.10
2022-07-29T17:07:20.903Z,2.35
2022-07-29T17:29:39.547Z,2.00
2022-07-29T17:34:42.735Z,2.00
2022-07-29T17:39:45.073Z,2.30
2022-07-29T17:44:47.283Z,2.20
2022-07-29T17:49:49.977Z,2.15
2022-07-29T17:54:52.154Z,1.83
2022-07-29T17:59:54.307Z,4.20
2022-07-29T18:04:59.366Z,2.97
2022-07-29T18:10:08.196Z,2.22
2022-07-29T18:15:13.191Z,2.38
2022-07-29T18:20:24.144Z,2.67
2022-07-29T18:25:26.722Z,2.10
2022-07-29T18:30:30.303Z,2.25
2022-07-29T18:35:33.302Z,2.35
2022-07-29T18:40:35.559Z,2.75
2022-07-29T18:45:37.783Z,2.45
2022-07-29T18:50:42.351Z,2.72
2022-07-29T18:55:45.009Z,2.60
2022-07-29T19:00:47.167Z,8.02
2022-07-29T19:05:49.608Z,4.35
2022-07-29T19:10:51.671Z,3.00
2022-07-29T19:15:54.047Z,2.30
2022-07-29T19:20:56.407Z,2.08
2022-07-29T19:25:59.623Z,2.40
2022-07-29T19:31:02.363Z,2.03
2022-07-29T19:36:04.661Z,2.25
2022-07-29T19:41:07.235Z,2.35
2022-07-29T19:46:09.318Z,2.40
2022-07-29T19:51:11.377Z,2.40
2022-07-29T19:56:13.475Z,8.05
2022-07-29T20:01:17.567Z,4.53
2022-07-29T20:06:21.604Z,2.40
2022-07-29T20:11:32.453Z,2.33
2022-07-29T20:16:34.450Z,2.45
2022-07-29T20:21:42.389Z,2.10
2022-07-29T20:26:44.479Z,2.33
2022-07-29T20:31:56.148Z,2.08
2022-07-29T20:37:00.528Z,1.90
2022-07-29T20:42:02.778Z,1.42
2022-07-29T20:47:04.882Z,1.85
2022-07-29T20:52:07.115Z,2.00
2022-07-29T20:57:09.498Z,1.98
2022-07-29T21:02:11.675Z,1.90
2022-07-29T21:07:13.711Z,2.00
2022-07-29T21:12:15.671Z,1.80
2022-07-29T21:17:21.215Z,1.90
2022-07-29T21:22:24.665Z,2.15
2022-07-29T21:27:45.598Z,2.53
2022-07-29T21:32:50.938Z,2.25
2022-07-29T21:37:55.604Z,1.95
2022-07-29T21:42:57.904Z,2.03
2022-07-29T21:48:00.112Z,2.45
2022-07-29T21:53:02.283Z,2.38
2022-07-29T21:58:06.722Z,1.90
2022-07-29T22:03:09.031Z,2.17
2022-07-29T22:08:11.263Z,2.55
2022-07-29T22:13:21.549Z,4.90
2022-07-29T22:18:23.499Z,3.60
2022-07-29T22:23:25.609Z,2.60
2022-07-29T22:28:27.702Z,3.25
2022-07-29T22:33:29.669Z,3.20
2022-07-29T22:38:31.759Z,2.55
2022-07-29T22:43:39.665Z,1.90
2022-07-29T22:48:41.731Z,2.30
2022-07-29T22:53:48.328Z,3.38
2022-07-29T22:58:53.463Z,3.05
2022-07-29T23:03:55.631Z,3.45
2022-07-29T23:08:57.710Z,2.70
2022-07-29T23:13:59.713Z,2.40
2022-07-29T23:19:01.791Z,2.28
2022-07-29T23:24:04.171Z,2.45
2022-07-29T23:29:07.910Z,2.35
2022-07-29T23:34:13.128Z,2.40
2022-07-29T23:39:15.314Z,2.30
2022-07-29T23:44:17.296Z,2.40
2022-07-29T23:49:19.356Z,2.15
2022-07-29T23:54:21.571Z,2.10
2022-07-29T23:59:24.794Z,1.90
